Time;durP1;ratioP1;P1;durP2;ratioP2;P2;SDS_P1;SDS_P2;PMS_P1;PMS_P2;Temp;Humidity;BMP_temperature;BMP_pressure;BME280_temperature;BME280_humidity;BME280_pressure;Samples;Min_cycle;Max_cycle;Signal;HPM_P1;HPM_P2
2022/04/20 00:00:15;;;;;;;;;;;;;;;8.84;57.62;92202.72;2054812;69;20070;-68
2022/04/20 00:02:41;;;;;;;;;;;;;;;9.51;55.01;92196.66;2055467;70;20121;-68
2022/04/20 00:05:07;;;;;;;;;;;;;;;9.63;54.08;92194.56;2054977;69;20082;-68
2022/04/20 00:07:33;;;;;;;;;;;;;;;9.48;55.11;92195.81;2054750;69;20154;-68
2022/04/20 00:09:59;;;;;;;;;;;;;;;9.67;54.15;92189.88;2055109;69;20078;-68
2022/04/20 00:12:25;;;;;;;;;;;;;;;9.80;52.77;92196.91;2067775;69;20061;-68
2022/04/20 00:14:51;;;;;;;;;;;;;;;9.92;52.57;92194.75;2068002;69;20047;-68
2022/04/20 00:17:16;;;;;;;;;;;;;;;9.92;50.62;92194.75;2054839;70;20063;-70
2022/04/20 00:19:42;;;;;;;;;;;;;;;9.21;54.66;92184.41;2054634;70;20062;-69
2022/04/20 00:22:08;;;;;;;;;;;;;;;9.97;52.33;92192.91;2054976;70;20050;-68
2022/04/20 00:24:33;;;;;;;;;;;;;;;9.79;52.46;92198.25;2054426;70;20069;-68
2022/04/20 00:26:59;;;;;;;;;;;;;;;9.87;51.93;92203.59;2054919;70;20050;-68
2022/04/20 00:29:24;;;;;;;;;;;;;;;9.68;52.60;92202.59;2055634;70;20067;-68
2022/04/20 00:31:50;;;;;;;;;;;;;;;9.75;52.20;92200.09;2055494;70;20058;-70
2022/04/20 00:34:15;;;;;;;;;;;;;;;9.73;52.27;92203.53;2068424;69;20153;-68
2022/04/20 00:36:41;;;;;;;;;;;;;;;9.42;54.13;92201.09;2055301;70;20114;-69
2022/04/20 00:39:06;;;;;;;;;;;;;;;9.51;53.14;92213.53;2055315;69;20085;-68
2022/04/20 00:41:32;;;;;;;;;;;;;;;9.07;54.38;92201.19;2055490;69;20156;-68
2022/04/20 00:43:58;;;;;;;;;;;;;;;8.79;54.88;92203.78;2068367;69;20069;-68
2022/04/20 00:46:24;;;;;;;;;;;;;;;8.80;55.96;92198.94;2065651;69;20237;-69
2022/04/20 00:48:51;;;;;;;;;;;;;;;9.11;53.95;92207.03;2055629;70;20104;-69
2022/04/20 00:51:17;;;;;;;;;;;;;;;9.26;53.70;92205.81;2068513;69;20078;-69
2022/04/20 00:53:42;;;;;;;;;;;;;;;9.29;54.17;92207.38;2055443;70;20142;-69
2022/04/20 00:56:09;;;;;;;;;;;;;;;9.35;52.80;92216.16;2068358;69;20130;-70
2022/04/20 00:58:37;;;;;;;;;;;;;;;9.45;52.60;92213.91;2067992;69;20050;-70
2022/04/20 01:01:03;;;;;;;;;;;;;;;9.46;52.11;92209.03;2067633;69;20552;-69
2022/04/20 01:03:29;;;;;;;;;;;;;;;9.57;50.64;92208.97;2067649;69;20061;-69
2022/04/20 01:06:23;;;;;;;;;;;;;;;9.11;52.79;92215.47;2068404;69;20093;-68
2022/04/20 01:08:57;;;;;;;;;;;;;;;9.08;53.12;92209.00;2055228;69;20144;-69
2022/04/20 01:11:49;;;;;;;;;;;;;;;9.22;51.40;92214.72;2057025;69;20058;-68
2022/04/20 01:14:44;;;;;;;;;;;;;;;9.35;52.04;92216.88;2057227;69;20149;-68
2022/04/20 01:17:24;;;;;;;;;;;;;;;9.25;52.40;92213.47;2068218;69;20510;-68
2022/04/20 01:20:18;;;;;;;;;;;;;;;9.22;52.77;92225.22;2057944;69;20511;-67
2022/04/20 01:23:12;;;;;;;;;;;;;;;9.17;54.30;92218.63;2055443;69;20050;-67
2022/04/20 01:26:08;;;;;;;;;;;;;;;9.12;54.14;92216.94;2068472;69;20050;-67
2022/04/20 01:28:50;;;;;;;;;;;;;;;9.45;50.67;92218.81;2068330;69;20054;-68
2022/04/20 01:31:38;;;;;;;;;;;;;;;9.31;52.58;92216.66;2055419;69;20073;-68
2022/04/20 01:34:11;;;;;;;;;;;;;;;9.29;52.73;92216.50;2068147;69;20062;-68
2022/04/20 01:36:37;;;;;;;;;;;;;;;9.37;51.44;92208.56;2055244;70;20066;-69
2022/04/20 01:39:02;;;;;;;;;;;;;;;8.89;54.25;92212.84;2068176;69;20049;-69
2022/04/20 01:41:28;;;;;;;;;;;;;;;8.59;53.58;92214.53;2068217;69;20062;-68
2022/04/20 01:43:54;;;;;;;;;;;;;;;8.51;54.00;92214.06;2068123;69;20058;-68
2022/04/20 01:46:26;;;;;;;;;;;;;;;7.96;56.62;92216.28;2055390;70;20054;-68
2022/04/20 01:49:07;;;;;;;;;;;;;;;8.65;53.82;92212.09;2068327;69;20065;-68
2022/04/20 01:51:50;;;;;;;;;;;;;;;8.96;51.73;92218.78;2055319;69;20066;-68
2022/04/20 01:54:51;;;;;;;;;;;;;;;9.23;50.24;92221.78;2040821;70;20687;-69
2022/04/20 01:57:27;;;;;;;;;;;;;;;8.68;53.44;92215.78;2061611;69;20070;-69
2022/04/20 02:00:19;;;;;;;;;;;;;;;8.67;53.30;92216.38;2055773;69;20057;-69
2022/04/20 02:02:57;;;;;;;;;;;;;;;8.48;53.30;92211.75;2055289;70;20118;-68
2022/04/20 02:05:23;;;;;;;;;;;;;;;8.57;54.12;92211.63;2055264;70;20092;-68
2022/04/20 02:07:52;;;;;;;;;;;;;;;9.09;49.70;92212.53;2068089;69;20049;-69
2022/04/20 02:10:24;;;;;;;;;;;;;;;8.64;53.11;92210.63;2067866;69;20123;-68
2022/04/20 02:12:50;;;;;;;;;;;;;;;8.56;52.63;92212.97;2063168;69;20070;-68
2022/04/20 02:15:36;;;;;;;;;;;;;;;7.89;55.39;92217.97;2047313;70;20510;-68
2022/04/20 02:18:02;;;;;;;;;;;;;;;8.33;53.45;92212.91;2047315;70;20079;-68
2022/04/20 02:20:50;;;;;;;;;;;;;;;8.37;52.96;92213.94;2047167;70;20425;-68
2022/04/20 02:23:15;;;;;;;;;;;;;;;8.32;53.23;92214.28;2047126;70;20063;-69
2022/04/20 02:25:43;;;;;;;;;;;;;;;8.50;52.24;92212.59;2047879;70;20066;-68
2022/04/20 02:28:08;;;;;;;;;;;;;;;8.66;51.99;92212.84;2047235;70;20055;-68
2022/04/20 02:30:35;;;;;;;;;;;;;;;8.74;51.43;92210.50;2047313;70;20486;-69
2022/04/20 02:33:00;;;;;;;;;;;;;;;8.67;52.14;92216.38;2047797;70;20102;-69
2022/04/20 02:35:27;;;;;;;;;;;;;;;8.62;52.63;92216.16;2047337;70;20150;-69
2022/04/20 02:37:53;;;;;;;;;;;;;;;8.74;51.71;92206.97;2047475;70;20065;-69
2022/04/20 02:40:19;;;;;;;;;;;;;;;8.61;53.24;92216.75;2047894;70;20063;-68
2022/04/20 02:42:45;;;;;;;;;;;;;;;8.58;52.66;92213.09;2047756;70;20563;-68
2022/04/20 02:45:16;;;;;;;;;;;;;;;8.87;50.37;92211.97;2047838;70;20050;-68
2022/04/20 02:47:42;;;;;;;;;;;;;;;8.61;51.95;92205.50;2048508;70;20117;-68
2022/04/20 02:50:08;;;;;;;;;;;;;;;8.53;51.85;92208.59;2049122;70;20075;-68
2022/04/20 02:52:34;;;;;;;;;;;;;;;8.60;51.65;92210.41;2048698;70;20089;-68
2022/04/20 02:54:59;;;;;;;;;;;;;;;8.30;53.22;92206.47;2048459;70;20140;-68
2022/04/20 02:57:26;;;;;;;;;;;;;;;8.54;51.43;92215.66;2048524;70;20047;-69
2022/04/20 02:59:53;;;;;;;;;;;;;;;8.40;52.63;92214.78;2048682;70;20047;-68
2022/04/20 03:02:18;;;;;;;;;;;;;;;8.07;54.47;92217.66;2048594;70;20057;-69
2022/04/20 03:04:45;;;;;;;;;;;;;;;8.12;54.06;92217.28;2049131;70;20047;-69
2022/04/20 03:07:11;;;;;;;;;;;;;;;8.31;53.29;92215.63;2048580;70;20058;-68
2022/04/20 03:09:43;;;;;;;;;;;;;;;8.29;53.51;92216.22;2048589;69;20158;-68
2022/04/20 03:12:08;;;;;;;;;;;;;;;8.44;51.71;92217.13;2048681;70;20092;-69
2022/04/20 03:14:36;;;;;;;;;;;;;;;8.62;51.88;92215.41;2068815;69;20088;-69
2022/04/20 03:17:02;;;;;;;;;;;;;;;8.38;51.59;92215.41;2068409;69;20042;-68
2022/04/20 03:19:28;;;;;;;;;;;;;;;8.23;53.30;92221.44;2068745;69;20077;-68
2022/04/20 03:21:54;;;;;;;;;;;;;;;8.39;52.58;92225.28;2068548;69;20050;-69
2022/04/20 03:24:23;;;;;;;;;;;;;;;8.27;52.54;92227.31;2065464;69;20055;-69
2022/04/20 03:27:12;;;;;;;;;;;;;;;8.51;51.90;92222.47;2057149;69;20109;-68
2022/04/20 03:29:44;;;;;;;;;;;;;;;8.50;51.87;92217.47;2068703;69;20423;-68
2022/04/20 03:32:12;;;;;;;;;;;;;;;8.59;51.50;92217.34;2055549;69;20583;-67
2022/04/20 03:34:40;;;;;;;;;;;;;;;8.48;52.80;92220.19;2068612;69;20054;-68
2022/04/20 03:37:06;;;;;;;;;;;;;;;8.80;49.81;92215.78;2055592;69;20131;-69
2022/04/20 03:39:32;;;;;;;;;;;;;;;8.56;51.94;92215.75;2068495;69;20054;-69
2022/04/20 03:41:57;;;;;;;;;;;;;;;8.67;51.46;92207.97;2055549;69;20074;-68
2022/04/20 03:44:23;;;;;;;;;;;;;;;8.74;51.40;92215.41;2055621;70;20065;-68
2022/04/20 03:46:49;;;;;;;;;;;;;;;8.41;52.23;92213.44;2055513;69;20054;-69
2022/04/20 03:49:14;;;;;;;;;;;;;;;8.57;50.98;92208.81;2055157;70;20092;-68
2022/04/20 03:51:40;;;;;;;;;;;;;;;8.22;52.73;92208.78;2068473;69;20047;-69
2022/04/20 03:54:06;;;;;;;;;;;;;;;8.34;51.78;92209.53;2068594;69;20062;-69
2022/04/20 03:59:19;;;;;;;;;;;;;;;7.35;56.94;92218.03;2068509;69;20545;-68
2022/04/20 04:01:46;;;;;;;;;;;;;;;7.75;55.50;92219.16;2068540;69;20151;-69
2022/04/20 04:04:12;;;;;;;;;;;;;;;7.83;55.24;92219.66;2068671;69;20050;-68
2022/04/20 04:06:39;;;;;;;;;;;;;;;8.09;53.82;92206.56;2068552;69;20054;-68
2022/04/20 04:09:05;;;;;;;;;;;;;;;7.81;55.10;92206.25;2068377;69;20417;-69
2022/04/20 04:11:31;;;;;;;;;;;;;;;7.49;56.58;92210.53;2068432;69;20503;-68
2022/04/20 04:13:57;;;;;;;;;;;;;;;8.09;53.11;92209.38;2053947;69;20516;-69
2022/04/20 04:16:22;;;;;;;;;;;;;;;7.72;54.81;92206.34;2047953;70;20128;-69
2022/04/20 04:18:48;;;;;;;;;;;;;;;7.44;55.86;92210.88;2045106;70;20096;-69
2022/04/20 04:21:13;;;;;;;;;;;;;;;7.53;55.05;92207.28;2048285;70;20094;-70
2022/04/20 04:23:41;;;;;;;;;;;;;;;7.57;54.84;92207.53;2048324;70;20054;-69
2022/04/20 04:26:31;;;;;;;;;;;;;;;7.60;55.02;92211.91;2048222;69;20047;-70
2022/04/20 04:28:58;;;;;;;;;;;;;;;7.22;56.36;92212.97;2045677;70;20456;-68
2022/04/20 04:31:24;;;;;;;;;;;;;;;7.73;54.93;92210.63;2048352;70;20051;-68
2022/04/20 04:33:52;;;;;;;;;;;;;;;7.95;53.68;92205.69;2048389;70;20058;-68
2022/04/20 04:36:18;;;;;;;;;;;;;;;7.85;52.73;92211.38;2048296;70;20078;-69
2022/04/20 04:38:52;;;;;;;;;;;;;;;7.76;54.01;92207.34;2048270;70;20155;-69
2022/04/20 04:41:23;;;;;;;;;;;;;;;7.80;54.57;92209.69;2048375;70;20061;-69
2022/04/20 04:43:49;;;;;;;;;;;;;;;7.27;56.60;92212.63;2048387;70;20051;-69
2022/04/20 04:49:20;;;;;;;;;;;;;;;7.70;55.07;92211.81;2048262;70;20101;-70
2022/04/20 04:51:46;;;;;;;;;;;;;;;7.54;56.03;92211.53;2048543;70;20486;-70
2022/04/20 04:54:15;;;;;;;;;;;;;;;7.88;53.14;92213.00;2045749;70;20469;-70
2022/04/20 04:56:41;;;;;;;;;;;;;;;7.89;53.19;92217.25;2048488;70;20058;-69
2022/04/20 04:59:06;;;;;;;;;;;;;;;7.76;54.90;92217.81;2048515;70;20425;-70
2022/04/20 05:01:32;;;;;;;;;;;;;;;7.38;55.49;92228.78;2048472;70;20138;-70
2022/04/20 05:04:05;;;;;;;;;;;;;;;7.36;56.11;92230.69;2046019;70;20059;-68
2022/04/20 05:06:31;;;;;;;;;;;;;;;7.24;56.89;92233.44;2048548;70;20051;-68
2022/04/20 05:09:14;;;;;;;;;;;;;;;6.82;57.50;92225.75;2048986;70;20476;-68
2022/04/20 05:11:42;;;;;;;;;;;;;;;7.70;54.09;92223.03;2048470;70;20050;-68
2022/04/20 05:14:10;;;;;;;;;;;;;;;7.80;53.78;92220.88;2054671;70;20473;-69
2022/04/20 05:16:38;;;;;;;;;;;;;;;7.54;55.08;92220.66;2068572;69;20455;-69
2022/04/20 05:19:05;;;;;;;;;;;;;;;7.48;55.01;92225.16;2068661;69;20065;-69
2022/04/20 05:21:31;;;;;;;;;;;;;;;7.12;56.05;92219.38;2068545;69;20047;-69
2022/04/20 05:23:58;;;;;;;;;;;;;;;7.46;54.86;92225.00;2068492;69;20051;-69
2022/04/20 05:26:25;;;;;;;;;;;;;;;7.59;54.10;92221.66;2068537;69;20499;-69
2022/04/20 05:28:51;;;;;;;;;;;;;;;7.04;56.53;92220.91;2068584;69;20509;-69
2022/04/20 05:31:17;;;;;;;;;;;;;;;7.32;54.96;92219.22;2068575;69;20081;-70
2022/04/20 05:33:44;;;;;;;;;;;;;;;7.38;54.64;92225.25;2068528;69;20146;-70
2022/04/20 05:36:11;;;;;;;;;;;;;;;6.85;57.54;92216.91;2068547;69;20051;-69
2022/04/20 05:41:41;;;;;;;;;;;;;;;7.71;53.51;92214.03;2068550;69;20124;-70
2022/04/20 05:44:12;;;;;;;;;;;;;;;7.33;54.91;92223.50;2055724;69;20444;-70
2022/04/20 05:46:39;;;;;;;;;;;;;;;7.59;53.53;92230.06;2068602;69;20080;-70
2022/04/20 05:49:11;;;;;;;;;;;;;;;7.36;55.07;92223.03;2068587;69;20077;-70
2022/04/20 05:51:38;;;;;;;;;;;;;;;7.64;54.49;92212.16;2068541;69;20105;-69
2022/04/20 05:54:04;;;;;;;;;;;;;;;7.71;52.84;92219.63;2068431;69;20047;-70
2022/04/20 05:56:32;;;;;;;;;;;;;;;7.89;52.68;92215.19;2068513;69;20493;-69
2022/04/20 05:58:58;;;;;;;;;;;;;;;7.94;51.76;92215.44;2055520;70;20070;-69
2022/04/20 06:01:26;;;;;;;;;;;;;;;8.11;52.93;92209.50;2068476;69;20051;-71
2022/04/20 06:03:51;;;;;;;;;;;;;;;7.67;54.57;92213.78;2055546;69;20485;-71
2022/04/20 06:06:37;;;;;;;;;;;;;;;7.59;54.13;92205.59;2054108;69;20053;-70
2022/04/20 06:09:11;;;;;;;;;;;;;;;7.53;54.34;92204.47;2055450;70;20162;-70
2022/04/20 06:11:36;;;;;;;;;;;;;;;7.68;54.86;92201.22;2055515;70;20085;-70
2022/04/20 06:14:03;;;;;;;;;;;;;;;7.51;56.01;92199.47;2053503;69;20494;-70
2022/04/20 06:16:35;;;;;;;;;;;;;;;7.69;54.51;92191.47;2048839;70;20051;-70
2022/04/20 06:19:10;;;;;;;;;;;;;;;7.69;54.52;92191.47;2049452;70;20492;-69
2022/04/20 06:21:45;;;;;;;;;;;;;;;8.36;51.75;92178.81;2048784;70;20121;-70
2022/04/20 06:24:18;;;;;;;;;;;;;;;7.96;53.00;92187.53;2048782;70;20118;-71
2022/04/20 06:27:16;;;;;;;;;;;;;;;8.22;53.18;92175.13;2043396;70;20089;-71
2022/04/20 06:29:53;;;;;;;;;;;;;;;8.37;52.44;92177.47;2048861;69;20516;-70
2022/04/20 06:32:45;;;;;;;;;;;;;;;8.26;52.72;92174.66;2046226;70;20094;-70
2022/04/20 06:35:37;;;;;;;;;;;;;;;8.06;53.67;92180.50;2047698;70;20049;-70
2022/04/20 06:38:22;;;;;;;;;;;;;;;8.65;51.55;92174.88;2049294;70;20100;-69
2022/04/20 06:41:14;;;;;;;;;;;;;;;8.86;51.70;92171.94;2049511;70;20106;-69
2022/04/20 06:43:59;;;;;;;;;;;;;;;8.21;53.06;92164.53;2043860;70;20125;-70
2022/04/20 06:46:45;;;;;;;;;;;;;;;9.48;49.65;92170.53;2049324;70;20062;-69
2022/04/20 06:49:43;;;;;;;;;;;;;;;9.97;50.26;92161.97;2046955;70;20562;-69
2022/04/20 07:00:51;;;;;;;;;;;;;;;10.66;46.96;92154.38;2048753;70;20066;-72
2022/04/20 07:03:41;;;;;;;;;;;;;;;11.14;45.88;92160.31;2048776;70;20508;-68
2022/04/20 07:06:39;;;;;;;;;;;;;;;11.24;45.34;92149.53;2045720;70;20078;-69
2022/04/20 07:09:13;;;;;;;;;;;;;;;11.85;43.82;92140.50;2046122;70;20058;-70
2022/04/20 07:11:51;;;;;;;;;;;;;;;11.48;45.05;92140.81;2048764;70;20566;-69
2022/04/20 07:14:17;;;;;;;;;;;;;;;11.54;45.74;92139.00;2048678;70;20204;-69
2022/04/20 07:16:43;;;;;;;;;;;;;;;12.10;44.20;92133.91;2048717;69;20050;-70
2022/04/20 07:19:19;;;;;;;;;;;;;;;12.37;44.13;92133.75;2048777;70;20071;-68
2022/04/20 07:22:03;;;;;;;;;;;;;;;12.87;43.86;92119.66;2049265;70;20125;-71
2022/04/20 07:24:48;;;;;;;;;;;;;;;13.24;43.00;92121.97;2049416;69;20260;-72
2022/04/20 07:27:49;;;;;;;;;;;;;;;13.16;42.41;92108.19;2041807;70;20179;-70
2022/04/20 07:30:44;;;;;;;;;;;;;;;12.46;43.50;92107.34;2046666;70;20514;-69
2022/04/20 07:33:38;;;;;;;;;;;;;;;13.06;42.34;92104.22;2047490;70;20082;-69
2022/04/20 07:36:11;;;;;;;;;;;;;;;13.33;42.35;92112.47;2048718;70;20055;-69
2022/04/20 07:39:05;;;;;;;;;;;;;;;13.42;42.54;92116.31;2042503;70;20575;-71
2022/04/20 07:41:50;;;;;;;;;;;;;;;14.27;40.79;92116.13;2049260;70;20588;-72
2022/04/20 07:44:45;;;;;;;;;;;;;;;13.89;41.22;92104.78;2039759;70;20141;-72
2022/04/20 07:47:28;;;;;;;;;;;;;;;12.94;42.24;92110.09;2049351;70;20051;-70
2022/04/20 07:50:20;;;;;;;;;;;;;;;13.73;41.57;92106.97;2049082;70;20063;-70
2022/04/20 07:52:53;;;;;;;;;;;;;;;14.50;40.64;92095.06;2049186;70;20051;-70
2022/04/20 07:55:33;;;;;;;;;;;;;;;14.89;38.46;92097.19;2048621;70;20078;-69
2022/04/20 07:58:03;;;;;;;;;;;;;;;14.37;39.70;92088.19;2048623;70;20078;-69
2022/04/20 08:00:42;;;;;;;;;;;;;;;14.51;39.67;92087.28;2048675;70;20059;-69
2022/04/20 08:03:30;;;;;;;;;;;;;;;15.24;40.77;92089.84;2047311;70;20058;-70
2022/04/20 08:05:56;;;;;;;;;;;;;;;15.46;39.30;92087.75;2048614;70;20390;-69
2022/04/20 08:08:25;;;;;;;;;;;;;;;15.64;37.80;92084.09;2048497;70;20058;-69
2022/04/20 08:10:54;;;;;;;;;;;;;;;15.30;38.39;92078.72;2048605;70;20066;-70
2022/04/20 08:16:10;;;;;;;;;;;;;;;16.14;36.51;92079.28;2048611;70;20059;-70
2022/04/20 08:18:55;;;;;;;;;;;;;;;16.24;37.73;92079.59;2048632;70;20407;-70
2022/04/20 08:21:59;;;;;;;;;;;;;;;16.77;37.29;92074.75;2044814;70;20062;-70
2022/04/20 08:24:24;;;;;;;;;;;;;;;16.98;36.49;92062.53;2044825;70;20059;-70
2022/04/20 08:26:50;;;;;;;;;;;;;;;17.01;35.39;92060.47;2046808;70;20136;-70
2022/04/20 08:29:15;;;;;;;;;;;;;;;16.77;34.93;92061.25;2049139;70;20051;-71
2022/04/20 08:31:41;;;;;;;;;;;;;;;17.20;35.20;92064.53;2049129;70;20094;-70
2022/04/20 08:34:06;;;;;;;;;;;;;;;17.05;35.54;92054.19;2048727;70;20146;-70
2022/04/20 08:36:32;;;;;;;;;;;;;;;16.32;35.12;92055.66;2049165;70;20097;-70
2022/04/20 08:38:57;;;;;;;;;;;;;;;17.83;35.47;92054.75;2048468;70;20047;-70
2022/04/20 08:41:23;;;;;;;;;;;;;;;17.62;33.44;92047.81;2045839;70;20059;-70
2022/04/20 08:43:48;;;;;;;;;;;;;;;16.77;34.77;92046.34;2049128;70;20075;-70
2022/04/20 08:46:16;;;;;;;;;;;;;;;17.39;35.18;92042.97;2049142;70;20054;-69
2022/04/20 08:48:41;;;;;;;;;;;;;;;17.11;36.48;92046.53;2049145;70;20051;-70
2022/04/20 08:51:08;;;;;;;;;;;;;;;17.91;33.55;92040.69;2048539;70;20053;-71
2022/04/20 08:53:34;;;;;;;;;;;;;;;17.40;35.00;92039.44;2048495;69;20061;-71
2022/04/20 08:58:46;;;;;;;;;;;;;;;19.29;33.29;92037.13;2049257;70;20135;-71
2022/04/20 09:01:13;;;;;;;;;;;;;;;19.63;31.44;92036.31;2049064;70;20051;-71
2022/04/20 09:03:38;;;;;;;;;;;;;;;18.59;31.44;92030.75;2049115;70;20073;-71
2022/04/20 09:06:05;;;;;;;;;;;;;;;18.82;33.09;92023.41;2049081;70;20047;-71
2022/04/20 09:08:30;;;;;;;;;;;;;;;19.51;31.08;92030.34;2048990;70;20051;-71
2022/04/20 09:10:57;;;;;;;;;;;;;;;18.94;32.42;92023.63;2049104;70;20098;-71
2022/04/20 09:13:33;;;;;;;;;;;;;;;18.50;33.31;92022.03;2052527;70;20064;-70
2022/04/20 09:16:08;;;;;;;;;;;;;;;18.47;31.47;92023.41;2055677;69;20074;-71
2022/04/20 09:18:35;;;;;;;;;;;;;;;18.57;33.18;92016.47;2068613;69;20060;-72
2022/04/20 09:21:11;;;;;;;;;;;;;;;18.06;33.69;92009.69;2055588;70;20065;-70
2022/04/20 09:23:37;;;;;;;;;;;;;;;18.11;33.13;92008.38;2055485;69;20050;-71
2022/04/20 09:26:15;;;;;;;;;;;;;;;17.37;34.51;92000.97;2055620;70;20136;-72
2022/04/20 09:28:44;;;;;;;;;;;;;;;18.63;33.31;91994.50;2055640;70;20482;-72
2022/04/20 09:31:11;;;;;;;;;;;;;;;19.66;32.56;91997.81;2055710;69;20043;-70
2022/04/20 09:33:43;;;;;;;;;;;;;;;19.57;31.01;91992.66;2055729;69;20568;-71
2022/04/20 09:36:09;;;;;;;;;;;;;;;20.84;32.30;91990.16;2055566;70;20080;-70
2022/04/20 09:38:41;;;;;;;;;;;;;;;20.04;28.62;91991.25;2055502;70;20050;-71
2022/04/20 09:41:14;;;;;;;;;;;;;;;20.68;30.54;91995.69;2068550;69;20096;-71
2022/04/20 09:43:39;;;;;;;;;;;;;;;21.08;29.68;91991.88;2055572;70;20062;-72
2022/04/20 09:48:50;;;;;;;;;;;;;;;20.97;30.43;91986.00;2055522;69;20069;-71
2022/04/20 09:48:50;;;;;;;;;;;;;;;20.89;29.76;91988.06;2054652;69;20058;-70
2022/04/20 09:51:20;;;;;;;;;;;;;;;21.76;29.83;91988.22;2054211;69;20053;-70
2022/04/20 09:53:48;;;;;;;;;;;;;;;21.18;29.31;91992.69;2055330;70;20566;-71
2022/04/20 09:56:18;;;;;;;;;;;;;;;22.04;28.31;91985.56;2055429;70;20050;-71
2022/04/20 09:58:46;;;;;;;;;;;;;;;21.34;27.78;91977.81;2055464;70;20061;-71
2022/04/20 10:01:29;;;;;;;;;;;;;;;21.25;28.33;91984.88;2068147;69;20093;-71
2022/04/20 10:03:55;;;;;;;;;;;;;;;20.15;29.10;91981.41;2055450;69;20066;-69
2022/04/20 10:06:21;;;;;;;;;;;;;;;21.00;28.61;91970.31;2055502;70;20360;-70
2022/04/20 10:08:46;;;;;;;;;;;;;;;22.19;28.33;91963.47;2068283;69;20500;-70
2022/04/20 10:11:14;;;;;;;;;;;;;;;22.98;27.88;91962.41;2055414;69;20050;-70
2022/04/20 10:13:40;;;;;;;;;;;;;;;23.28;27.07;91956.75;2055381;70;20058;-70
2022/04/20 10:16:07;;;;;;;;;;;;;;;24.15;26.25;91951.78;2065704;69;20508;-71
2022/04/20 10:18:44;;;;;;;;;;;;;;;23.36;26.26;91958.19;2068458;69;20053;-71
2022/04/20 10:21:14;;;;;;;;;;;;;;;23.47;24.56;91948.16;2057658;69;20105;-70
2022/04/20 10:23:43;;;;;;;;;;;;;;;23.46;26.38;91940.97;2048600;69;20113;-70
2022/04/20 10:26:10;;;;;;;;;;;;;;;24.88;23.24;91942.22;2048660;69;20085;-70
2022/04/20 10:28:58;;;;;;;;;;;;;;;24.63;22.82;91933.69;2051964;70;20130;-71
2022/04/20 10:31:24;;;;;;;;;;;;;;;25.81;24.25;91929.44;2051643;70;20090;-71
2022/04/20 10:33:57;;;;;;;;;;;;;;;26.43;24.27;91924.53;2048389;69;20055;-71
2022/04/20 10:36:56;;;;;;;;;;;;;;;25.21;21.97;91920.47;2047678;70;20081;-71
2022/04/20 10:39:23;;;;;;;;;;;;;;;26.41;21.82;91915.91;2048557;70;20061;-70
2022/04/20 10:42:16;;;;;;;;;;;;;;;27.54;22.05;91910.19;2046297;69;20190;-70
2022/04/20 10:44:57;;;;;;;;;;;;;;;28.06;20.86;91912.97;2052080;70;20069;-71
2022/04/20 10:47:35;;;;;;;;;;;;;;;29.07;20.64;91904.59;2052031;69;20042;-71
2022/04/20 10:50:13;;;;;;;;;;;;;;;28.72;19.46;91904.56;2051897;70;20132;-71
2022/04/20 10:52:40;;;;;;;;;;;;;;;30.03;19.46;91902.44;2051987;70;20073;-68
2022/04/20 10:55:06;;;;;;;;;;;;;;;29.93;18.19;91896.19;2048776;69;20150;-69
2022/04/20 10:57:33;;;;;;;;;;;;;;;31.58;17.44;91903.34;2048731;69;20057;-70
2022/04/20 11:00:17;;;;;;;;;;;;;;;30.57;17.16;91901.81;2052517;70;20618;-71
2022/04/20 11:02:50;;;;;;;;;;;;;;;34.71;15.36;91898.63;2049090;70;20565;-71
2022/04/20 11:05:18;;;;;;;;;;;;;;;36.29;14.07;91896.56;2051597;70;20724;-74
2022/04/20 11:07:59;;;;;;;;;;;;;;;38.05;13.35;91902.16;2051787;70;20086;-70
2022/04/20 11:10:25;;;;;;;;;;;;;;;38.44;12.54;91894.81;2052527;70;20054;-74
2022/04/20 11:18:42;;;;;;;;;;;;;;;40.56;11.11;91884.84;2052180;70;20054;-69
2022/04/20 11:21:28;;;;;;;;;;;;;;;39.86;11.09;91876.06;2052330;70;20051;-71
2022/04/20 11:24:11;;;;;;;;;;;;;;;40.57;11.33;91871.50;2052435;70;20054;-71
2022/04/20 11:26:38;;;;;;;;;;;;;;;40.64;10.54;91872.53;2052538;70;20055;-71
2022/04/20 11:29:16;;;;;;;;;;;;;;;40.08;10.29;91865.09;2052655;69;20047;-71
2022/04/20 11:31:42;;;;;;;;;;;;;;;43.08;9.97;91864.97;2052611;70;20118;-73
2022/04/20 11:34:09;;;;;;;;;;;;;;;43.53;9.83;91862.22;2053352;69;20141;-71
2022/04/20 11:36:37;;;;;;;;;;;;;;;42.99;9.46;91858.22;2068502;69;20050;-70
2022/04/20 11:39:03;;;;;;;;;;;;;;;42.94;9.51;91854.19;2055491;70;20051;-70
2022/04/20 11:41:29;;;;;;;;;;;;;;;42.98;9.22;91842.72;2055676;69;20503;-73
2022/04/20 11:43:55;;;;;;;;;;;;;;;40.73;9.02;91837.25;2055668;69;20055;-71
2022/04/20 11:46:21;;;;;;;;;;;;;;;41.29;8.53;91837.91;2055678;69;20051;-69
2022/04/20 11:48:57;;;;;;;;;;;;;;;43.58;8.68;91833.00;2068614;69;20145;-70
2022/04/20 11:51:34;;;;;;;;;;;;;;;44.42;7.69;91835.22;2068763;69;20058;-70
2022/04/20 11:53:59;;;;;;;;;;;;;;;43.42;8.22;91826.03;2068517;69;20051;-70
2022/04/20 11:56:39;;;;;;;;;;;;;;;45.40;8.41;91824.78;2068632;69;20050;-70
2022/04/20 11:59:06;;;;;;;;;;;;;;;42.38;9.13;91819.09;2065997;69;20054;-70
2022/04/20 12:01:33;;;;;;;;;;;;;;;43.88;8.33;91809.13;2055580;69;20061;-70
2022/04/20 12:04:01;;;;;;;;;;;;;;;42.59;8.94;91803.50;2055549;70;20530;-70
2022/04/20 12:06:27;;;;;;;;;;;;;;;43.56;7.86;91809.44;2068688;69;20058;-71
2022/04/20 12:08:56;;;;;;;;;;;;;;;43.33;8.35;91798.63;2055457;70;20141;-71
2022/04/20 12:11:21;;;;;;;;;;;;;;;40.62;8.89;91795.97;2068661;69;20119;-70
2022/04/20 12:13:53;;;;;;;;;;;;;;;41.96;8.18;91793.34;2055743;69;20074;-71
2022/04/20 12:16:18;;;;;;;;;;;;;;;38.78;8.93;91780.38;2049003;70;20476;-72
2022/04/20 12:18:45;;;;;;;;;;;;;;;39.90;8.50;91788.13;2049063;70;20125;-71
2022/04/20 12:21:29;;;;;;;;;;;;;;;42.82;8.55;91776.59;2048973;70;20515;-71
2022/04/20 12:23:55;;;;;;;;;;;;;;;38.78;9.24;91770.88;2048475;70;20186;-70
2022/04/20 12:26:26;;;;;;;;;;;;;;;41.62;7.84;91774.31;2048758;70;20050;-71
2022/04/20 12:28:57;;;;;;;;;;;;;;;37.31;9.89;91753.50;2047927;70;20151;-70
2022/04/20 12:31:24;;;;;;;;;;;;;;;36.09;9.89;91756.97;2049064;70;20059;-70
2022/04/20 12:34:00;;;;;;;;;;;;;;;37.20;9.87;91746.06;2048948;70;20058;-70
2022/04/20 12:36:26;;;;;;;;;;;;;;;40.63;8.08;91752.41;2049018;70;20098;-70
2022/04/20 12:38:56;;;;;;;;;;;;;;;41.82;7.28;91748.50;2048747;70;20098;-70
2022/04/20 12:41:37;;;;;;;;;;;;;;;38.79;8.99;91734.72;2048423;70;20083;-70
2022/04/20 12:44:22;;;;;;;;;;;;;;;42.13;8.38;91741.06;2048409;70;20054;-76
2022/04/20 12:46:48;;;;;;;;;;;;;;;38.41;8.40;91737.06;2048990;70;20108;-72
2022/04/20 12:49:23;;;;;;;;;;;;;;;40.08;7.58;91730.25;2048935;70;20058;-74
2022/04/20 12:51:49;;;;;;;;;;;;;;;42.75;7.90;91734.25;2048946;70;20086;-74
2022/04/20 12:54:24;;;;;;;;;;;;;;;40.97;8.26;91734.63;2048872;70;20090;-73
2022/04/20 13:02:19;;;;;;;;;;;;;;;42.46;7.64;91717.25;2048442;70;20206;-71
2022/04/20 13:04:48;;;;;;;;;;;;;;;40.11;8.74;91719.75;2048924;70;20096;-72
2022/04/20 13:07:14;;;;;;;;;;;;;;;41.31;8.63;91716.69;2048953;70;20125;-71
2022/04/20 13:09:39;;;;;;;;;;;;;;;41.17;8.07;91708.88;2048787;70;20062;-71
2022/04/20 13:12:05;;;;;;;;;;;;;;;40.96;9.05;91709.59;2049011;70;20059;-71
2022/04/20 13:14:31;;;;;;;;;;;;;;;42.52;8.02;91699.03;2055285;70;20066;-71
2022/04/20 13:16:57;;;;;;;;;;;;;;;39.95;8.18;91699.47;2068531;69;20182;-72
2022/04/20 13:19:22;;;;;;;;;;;;;;;42.48;7.51;91702.31;2055411;69;20479;-71
2022/04/20 13:21:47;;;;;;;;;;;;;;;46.09;7.04;91711.00;2055383;70;20425;-72
2022/04/20 13:24:13;;;;;;;;;;;;;;;43.97;6.84;91690.59;2055097;69;20058;-71
2022/04/20 13:29:23;;;;;;;;;;;;;;;44.94;7.01;91705.44;2055554;70;20050;-71
2022/04/20 13:31:48;;;;;;;;;;;;;;;47.49;6.63;91708.50;2055513;70;20059;-71
2022/04/20 13:34:14;;;;;;;;;;;;;;;41.82;7.53;91691.69;2055472;70;20089;-72
2022/04/20 13:36:40;;;;;;;;;;;;;;;44.72;6.55;91695.50;2055325;69;20066;-73
2022/04/20 13:39:06;;;;;;;;;;;;;;;38.36;9.10;91690.28;2068272;69;20089;-74
2022/04/20 13:41:31;;;;;;;;;;;;;;;40.35;8.32;91684.28;2068330;69;20082;-71
2022/04/20 13:43:57;;;;;;;;;;;;;;;42.39;8.20;91684.47;2055547;70;20155;-71
2022/04/20 13:46:23;;;;;;;;;;;;;;;41.76;7.56;91677.34;2055508;69;20050;-71
2022/04/20 13:48:48;;;;;;;;;;;;;;;38.12;9.63;91665.97;2068357;69;20131;-72
2022/04/20 13:51:14;;;;;;;;;;;;;;;42.62;7.60;91678.28;2055536;69;20115;-71